Saturday, July 30, 2016, 5:06 AM EDT

KFDK, Frederick, Frederick Municipal Airport

Location: Frederick, MD, United States Lat: 39.417
Local Time: 5:06 AM EDT ( 9:06 GMT) Lon: -77.374
Time Zone: US/Eastern Elev: 301 ft

Show me the last for .
Show Decoded

2016-07-30 04:50 METAR KFDK 300850Z AUTO 00000KT 3SM BR CLR 21/21 A2997 RMK AO2 =
2016-07-30 04:30 METAR KFDK 300830Z AUTO 00000KT 1 3/4SM BR VV007 21/21 A2996 RMK AO2 LTG DSNT W
                 =
2016-07-30 04:10 METAR KFDK 300810Z AUTO 00000KT 3SM BR CLR 21/21 A2996 =
2016-07-30 03:50 METAR KFDK 300750Z AUTO 00000KT 5SM BR CLR 21/21 A2996 RMK AO2 =
2016-07-30 03:30 METAR KFDK 300730Z AUTO 00000KT 4SM BR CLR 21/21 A2996 RMK AO2 LTG DSNT E =
2016-07-30 03:10 METAR KFDK 300710Z AUTO 15003KT 5SM BR CLR 22/22 A2996 RMK AO2 =
2016-07-30 02:50 METAR KFDK 300650Z AUTO 00000KT 3SM BR CLR 21/21 A2996 RMK AO2 =
2016-07-30 02:30 METAR KFDK 300630Z AUTO 00000KT 4SM BR CLR 21/21 A2997 RMK AO2 =
2016-07-30 02:10 METAR KFDK 300610Z AUTO 00000KT 3SM BR CLR 22/22 A2997 RMK AO2 =
2016-07-30 01:50 METAR KFDK 300550Z AUTO 00000KT 7SM CLR 22/22 A2997 RMK AO2 =
2016-07-30 01:30 METAR KFDK 300530Z AUTO 00000KT 7SM CLR 22/22 A2997 RMK AO2 =
2016-07-30 01:10 METAR KFDK 300510Z AUTO 16003KT 7SM CLR 22/22 A2997 RMK AO2 LTG DSNT E =
2016-07-30 00:50 METAR KFDK 300450Z AUTO 00000KT 3SM BR CLR 22/22 A2997 RMK AO2 =
2016-07-30 00:30 METAR KFDK 300430Z AUTO 00000KT 7SM CLR 22/22 A2997 RMK AO2 =
2016-07-30 00:10 METAR KFDK 300410Z AUTO 00000KT 7SM CLR 22/22 A2997 RMK AO2 =
2016-07-29 23:50 METAR KFDK 300350Z AUTO 15003KT 5SM BR CLR 22/22 A2997 RMK AO2 =
2016-07-29 23:30 METAR KFDK 300330Z AUTO 00000KT 5SM BR CLR 22/22 A2997 RMK AO2 =
2016-07-29 23:10 METAR KFDK 300310Z AUTO 00000KT 7SM CLR 22/22 A2996 RMK AO2 LTG DSNT W =
2016-07-29 22:50 METAR KFDK 300250Z AUTO 14003KT 7SM CLR 22/22 A2996 RMK AO2 =
2016-07-29 22:30 METAR KFDK 300230Z AUTO 00000KT 7SM CLR 22/22 A2996 RMK AO2 =
2016-07-29 22:10 METAR KFDK 300210Z AUTO 00000KT 10SM CLR 23/23 A2996 RMK AO2 =
2016-07-29 21:50 METAR KFDK 300150Z AUTO 12003KT 10SM CLR 23/23 A2995 RMK AO2 =
2016-07-29 21:30 METAR KFDK 300130Z AUTO 00000KT 10SM CLR 24/23 A2995 RMK AO2 LTG DSNT W =
2016-07-29 21:10 METAR KFDK 300110Z AUTO 00000KT 10SM CLR 25/23 A2994 RMK AO2 =
2016-07-29 20:50 METAR KFDK 300050Z AUTO 12003KT 10SM CLR 25/23 A2994 RMK AO2 =
2016-07-29 20:30 METAR KFDK 300030Z AUTO 13003KT 10SM CLR 26/23 A2993 RMK AO2 LTG DSNT E =
2016-07-29 19:50 METAR KFDK 292350Z 00000KT 10SM SKC 29/23 A2992 =
2016-07-29 18:53 METAR KFDK 292253Z 25004KT 10SM SKC 30/21 A2992 =
2016-07-29 17:47 METAR KFDK 292147Z VRB03KT 10SM BKN120 31/22 A2991 =
2016-07-29 16:47 METAR KFDK 292047Z VRB05KT 10SM SCT039 BKN050 BKN110 31/22 A2990 =
2016-07-29 15:47 METAR KFDK 291947Z 24003KT 10SM BKN050 30/21 A2990 =
2016-07-29 14:47 METAR KFDK 291847Z 00000KT 10SM SCT046 BKN055 BKN110 30/21 A2990 =
2016-07-29 13:50 METAR KFDK 291750Z 00000KT 10SM BKN046 BKN060 31/21 A2990 =
2016-07-29 12:48 METAR KFDK 291648Z 35005KT 10SM SCT040 31/21 A2990 =
2016-07-29 11:48 METAR KFDK 291548Z 34004KT 10SM SCT025 28/21 A2991 =
2016-07-29 10:50 METAR KFDK 291450Z 05006KT 10SM SCT025 27/21 A2992 =
2016-07-29 09:55 METAR KFDK 291355Z 00000KT 10SM FEW025 26/21 A2992 =
2016-07-29 08:50 METAR KFDK 291250Z 01006KT 7SM HZ SCT020 24/22 A2992 =
2016-07-29 07:47 METAR KFDK 291147Z 02005KT 7SM HZ SCT050 SCT070 23/23 A2991 =
2016-07-29 06:15 METAR KFDK 291015Z AUTO 35003KT 2 1/2SM BR OVC046 22/22 A2989 RMK AO2 LTG DSNT E
                 =
2016-07-29 06:05 METAR KFDK 291005Z AUTO 36003KT 3SM BR BKN043 OVC050 22/22 A2988 RMK AO2 LTG
                 DSNT E =
2016-07-29 05:45 METAR KFDK 290945Z AUTO 00000KT 2 1/2SM BR SCT009 OVC043 22/22 A2987 RMK AO2 LTG
                 DSNT E =
2016-07-29 05:25 METAR KFDK 290925Z AUTO 00000KT 4SM RA SCT007 BKN025 OVC045 22/22 A2986 RMK AO2
                 LTG DSNT E =

Support USWX by starting your Amazon purchase here.